Time;durP1;ratioP1;P1;durP2;ratioP2;P2;SDS_P1;SDS_P2;PMS_P1;PMS_P2;Temp;Humidity;BMP_temperature;BMP_pressure;BME280_temperature;BME280_humidity;BME280_pressure;Samples;Min_cycle;Max_cycle;Signal;HPM_P1;HPM_P2
2022/05/06 00:01:12;;;;;;;2.93;2.73;;;22.10;39.90;;;;;;5072072;28;20442;-80
2022/05/06 00:03:40;;;;;;;3.13;2.90;;;22.10;40.00;;;;;;5072591;28;20458;-81
2022/05/06 00:06:08;;;;;;;2.90;2.70;;;22.10;39.90;;;;;;5073041;28;20421;-81
2022/05/06 00:08:36;;;;;;;3.00;2.60;;;22.10;40.10;;;;;;5073795;28;20451;-82
2022/05/06 00:11:04;;;;;;;3.10;2.87;;;22.00;40.00;;;;;;5073062;28;20421;-81
2022/05/06 00:13:32;;;;;;;3.03;2.83;;;22.00;40.00;;;;;;5069852;28;20454;-80
2022/05/06 00:16:01;;;;;;;2.90;2.80;;;22.00;40.20;;;;;;5072844;28;20493;-81
2022/05/06 00:18:31;;;;;;;3.30;3.10;;;22.00;40.10;;;;;;5072522;28;20477;-81
2022/05/06 00:20:59;;;;;;;2.60;2.50;;;21.90;40.20;;;;;;5073007;28;20467;-82
2022/05/06 00:23:27;;;;;;;3.60;3.30;;;21.90;40.10;;;;;;5072718;28;20439;-81
2022/05/06 00:25:56;;;;;;;3.20;3.00;;;21.90;40.30;;;;;;5072298;28;20445;-82
2022/05/06 00:28:24;;;;;;;3.73;3.30;;;21.80;40.20;;;;;;5067942;28;20475;-80
2022/05/06 00:30:53;;;;;;;2.80;2.70;;;21.80;40.20;;;;;;5070623;28;20471;-82
2022/05/06 00:33:24;;;;;;;3.50;3.30;;;21.80;40.30;;;;;;5052881;28;20478;-81
2022/05/06 00:35:54;;;;;;;3.03;2.93;;;21.80;40.30;;;;;;5052945;28;20455;-81
2022/05/06 00:38:22;;;;;;;3.67;3.47;;;21.80;40.40;;;;;;5052561;28;20451;-81
2022/05/06 00:40:50;;;;;;;3.00;2.90;;;21.70;40.30;;;;;;5053324;28;20426;-80
2022/05/06 00:43:18;;;;;;;2.80;2.70;;;21.70;40.40;;;;;;5053467;28;20427;-82
2022/05/06 00:45:49;;;;;;;3.13;2.93;;;21.70;40.40;;;;;;5051748;28;20447;-80
2022/05/06 00:48:17;;;;;;;3.43;3.13;;;21.70;40.50;;;;;;5068152;28;20478;-81
2022/05/06 00:50:45;;;;;;;3.37;3.17;;;21.70;40.50;;;;;;5054903;28;20471;-81
2022/05/06 00:53:15;;;;;;;3.37;3.07;;;21.60;41.00;;;;;;5053335;28;20459;-82
2022/05/06 00:55:43;;;;;;;3.33;3.13;;;21.60;40.50;;;;;;5052294;28;20440;-81
2022/05/06 00:58:11;;;;;;;3.60;3.30;;;21.60;40.40;;;;;;5052969;28;20443;-81
2022/05/06 01:00:39;;;;;;;4.97;3.30;;;21.60;40.40;;;;;;5052202;28;20464;-81
2022/05/06 01:03:07;;;;;;;3.40;3.20;;;21.50;40.40;;;;;;5059824;28;20450;-80
2022/05/06 01:05:36;;;;;;;3.13;2.93;;;21.50;40.60;;;;;;5063483;28;20471;-81
2022/05/06 01:08:04;;;;;;;3.53;3.27;;;21.50;40.50;;;;;;5052742;28;20475;-81
2022/05/06 01:10:34;;;;;;;4.40;3.00;;;21.50;40.60;;;;;;5051859;28;20471;-82
2022/05/06 01:13:02;;;;;;;3.63;3.33;;;21.50;40.70;;;;;;5052476;28;20422;-81
2022/05/06 01:15:30;;;;;;;3.57;3.37;;;21.40;40.60;;;;;;5052071;28;20418;-81
2022/05/06 01:17:58;;;;;;;3.13;2.93;;;21.40;41.30;;;;;;5052061;28;20443;-82
2022/05/06 01:20:27;;;;;;;3.00;2.80;;;21.40;40.70;;;;;;5049640;28;20483;-80
2022/05/06 01:22:58;;;;;;;3.70;3.27;;;21.40;41.20;;;;;;5068577;28;20448;-81
2022/05/06 01:25:27;;;;;;;3.47;3.17;;;21.30;40.70;;;;;;5052506;28;20433;-80
2022/05/06 01:27:57;;;;;;;3.10;2.90;;;21.30;40.80;;;;;;5051826;28;20497;-81
2022/05/06 01:30:30;;;;;;;3.40;3.10;;;21.30;40.80;;;;;;5051952;28;20494;-82
2022/05/06 01:32:59;;;;;;;3.40;3.20;;;21.30;40.70;;;;;;5051214;28;20426;-81
2022/05/06 01:35:29;;;;;;;3.97;2.97;;;21.30;40.60;;;;;;5051658;28;20483;-82
2022/05/06 01:38:01;;;;;;;3.50;3.20;;;21.30;40.80;;;;;;5054592;28;20453;-81
2022/05/06 01:40:29;;;;;;;3.57;3.33;;;21.30;40.90;;;;;;5071914;28;20470;-81
2022/05/06 01:42:58;;;;;;;3.30;3.10;;;21.30;40.80;;;;;;5070949;28;20452;-82
2022/05/06 01:45:26;;;;;;;3.33;3.13;;;21.20;40.80;;;;;;5070729;28;20442;-79
2022/05/06 01:47:54;;;;;;;3.60;3.30;;;21.30;40.80;;;;;;5071875;28;20466;-81
2022/05/06 01:50:22;;;;;;;3.60;3.30;;;21.30;40.80;;;;;;5070937;28;20486;-83
2022/05/06 01:52:51;;;;;;;3.40;3.20;;;21.30;40.70;;;;;;5070842;28;20450;-82
2022/05/06 01:55:20;;;;;;;3.30;3.03;;;21.30;40.80;;;;;;5065161;28;20455;-80
2022/05/06 01:57:48;;;;;;;2.80;2.70;;;21.30;40.80;;;;;;5070738;28;20426;-81
2022/05/06 02:00:17;;;;;;;3.27;3.07;;;21.20;40.80;;;;;;5070691;28;20471;-80
2022/05/06 02:02:45;;;;;;;2.93;2.73;;;21.20;41.00;;;;;;5071334;28;20489;-82
2022/05/06 02:05:19;;;;;;;3.40;3.20;;;21.20;40.80;;;;;;5072170;28;20463;-81
2022/05/06 02:07:48;;;;;;;3.60;3.30;;;21.20;40.80;;;;;;5071928;28;20461;-79
2022/05/06 02:10:16;;;;;;;3.33;3.03;;;21.10;40.80;;;;;;5068323;28;20510;-80
2022/05/06 02:12:46;;;;;;;3.10;2.90;;;21.10;40.90;;;;;;5069151;28;20446;-81
2022/05/06 02:15:14;;;;;;;3.10;2.87;;;21.10;40.90;;;;;;5072289;28;20450;-80
2022/05/06 02:17:43;;;;;;;3.17;2.93;;;21.10;40.80;;;;;;5070920;28;20470;-82
2022/05/06 02:20:12;;;;;;;2.97;2.77;;;21.10;40.90;;;;;;5071118;28;20474;-81
2022/05/06 02:22:42;;;;;;;3.00;2.80;;;21.10;40.90;;;;;;5071140;28;20470;-81
2022/05/06 02:25:11;;;;;;;3.50;3.20;;;21.10;41.00;;;;;;5070957;28;20486;-82
2022/05/06 02:27:39;;;;;;;4.10;3.80;;;21.00;40.90;;;;;;5068896;28;20467;-80
2022/05/06 02:35:40;;;;;;;4.80;3.30;;;21.00;41.10;;;;;;5070657;28;20463;-82
2022/05/06 02:38:11;;;;;;;3.37;3.07;;;20.90;41.10;;;;;;5070484;28;20423;-81
2022/05/06 02:40:39;;;;;;;3.67;3.43;;;20.90;41.20;;;;;;5070706;28;20463;-81
2022/05/06 02:43:07;;;;;;;3.03;2.90;;;20.90;41.30;;;;;;5071153;28;20446;-81
2022/05/06 02:45:37;;;;;;;3.33;3.13;;;20.90;41.20;;;;;;5068502;28;20456;-80
2022/05/06 02:48:06;;;;;;;3.33;3.13;;;20.90;41.20;;;;;;5064990;28;20466;-81
2022/05/06 02:50:34;;;;;;;3.83;3.53;;;20.90;41.30;;;;;;5071032;28;20481;-80
2022/05/06 02:53:02;;;;;;;3.40;3.20;;;20.90;41.30;;;;;;5070647;28;20438;-81
2022/05/06 02:55:30;;;;;;;3.97;3.60;;;20.90;41.20;;;;;;5070833;28;20430;-81
2022/05/06 02:57:58;;;;;;;3.37;3.10;;;20.90;41.90;;;;;;5070020;28;20465;-80
2022/05/06 03:00:28;;;;;;;3.53;3.23;;;20.80;41.20;;;;;;5070420;28;20486;-81
2022/05/06 03:02:58;;;;;;;3.37;3.00;;;20.80;41.10;;;;;;5067435;28;20455;-80
2022/05/06 03:05:26;;;;;;;3.90;3.50;;;20.80;41.20;;;;;;5069015;28;20462;-81
2022/05/06 03:07:54;;;;;;;3.53;3.30;;;20.80;41.30;;;;;;5051823;28;20443;-80
2022/05/06 03:10:22;;;;;;;3.20;3.00;;;20.80;41.30;;;;;;5053259;28;20475;-82
2022/05/06 03:12:55;;;;;;;3.53;3.33;;;20.80;41.20;;;;;;5054779;28;20467;-82
2022/05/06 03:15:24;;;;;;;3.33;3.13;;;20.80;41.70;;;;;;5054846;28;20414;-82
2022/05/06 03:17:52;;;;;;;3.40;3.20;;;20.80;41.40;;;;;;5054237;28;20443;-80
2022/05/06 03:20:22;;;;;;;2.57;2.47;;;20.70;41.10;;;;;;5056549;28;20445;-80
2022/05/06 03:22:52;;;;;;;3.40;3.20;;;20.70;41.30;;;;;;5074149;28;20438;-82
2022/05/06 03:25:21;;;;;;;3.37;3.17;;;20.70;41.30;;;;;;5074249;28;20465;-82
2022/05/06 03:28:02;;;;;;;3.57;3.37;;;20.70;41.30;;;;;;5074107;28;20442;-81
2022/05/06 03:30:32;;;;;;;3.50;3.27;;;20.70;41.30;;;;;;5074318;28;20458;-83
2022/05/06 03:33:00;;;;;;;3.43;3.23;;;20.70;41.40;;;;;;5074381;28;20442;-81
2022/05/06 03:35:29;;;;;;;3.77;3.47;;;20.70;41.30;;;;;;5073429;28;20539;-82
2022/05/06 03:37:57;;;;;;;3.70;3.37;;;20.70;41.40;;;;;;5073871;28;20438;-83
2022/05/06 03:40:25;;;;;;;3.67;3.37;;;20.70;41.30;;;;;;5068516;28;20470;-81
2022/05/06 03:42:53;;;;;;;3.87;3.57;;;20.60;41.20;;;;;;5073521;28;20443;-81
2022/05/06 03:45:21;;;;;;;4.13;3.83;;;20.60;41.30;;;;;;5073252;28;20465;-82
2022/05/06 03:47:50;;;;;;;3.10;2.90;;;20.60;41.40;;;;;;5074538;28;20442;-81
2022/05/06 03:53:06;;;;;;;3.07;2.73;;;20.50;41.30;;;;;;5073368;28;20508;-81
2022/05/06 03:55:34;;;;;;;3.40;3.13;;;20.50;41.40;;;;;;5069505;28;20460;-80
2022/05/06 03:58:02;;;;;;;3.40;3.10;;;20.50;41.50;;;;;;5073744;28;20453;-83
2022/05/06 04:00:30;;;;;;;5.30;3.07;;;20.50;41.50;;;;;;5073463;28;20474;-81
2022/05/06 04:02:58;;;;;;;3.57;3.27;;;20.40;41.60;;;;;;5072955;28;20458;-82
2022/05/06 04:05:33;;;;;;;3.70;3.40;;;20.40;41.70;;;;;;5073928;28;20469;-82
2022/05/06 04:08:02;;;;;;;3.50;3.30;;;20.40;41.40;;;;;;5073182;28;20443;-81
2022/05/06 04:10:31;;;;;;;3.70;3.47;;;20.50;41.60;;;;;;5072583;28;20478;-80
2022/05/06 04:12:59;;;;;;;3.90;3.60;;;20.50;41.60;;;;;;5066113;28;20458;-80
2022/05/06 04:15:27;;;;;;;3.33;3.13;;;20.40;41.60;;;;;;5072663;28;20470;-81
2022/05/06 04:17:55;;;;;;;3.30;3.10;;;20.40;41.60;;;;;;5071910;28;20447;-82
2022/05/06 04:25:56;;;;;;;4.33;3.93;;;20.40;41.60;;;;;;5071218;28;20469;-82
2022/05/06 04:28:24;;;;;;;3.57;3.30;;;20.40;41.60;;;;;;5067567;28;20450;-80
2022/05/06 04:30:52;;;;;;;3.50;3.30;;;20.40;41.60;;;;;;5071196;28;20434;-81
2022/05/06 04:33:21;;;;;;;4.33;3.17;;;20.40;41.70;;;;;;5071417;28;20454;-81
2022/05/06 04:35:49;;;;;;;4.30;3.37;;;20.30;41.60;;;;;;5071956;28;20471;-81
2022/05/06 04:38:17;;;;;;;4.10;3.80;;;20.40;41.70;;;;;;5070783;28;20442;-81
2022/05/06 04:40:45;;;;;;;3.50;3.30;;;20.40;41.60;;;;;;5070832;28;20513;-83
2022/05/06 04:43:14;;;;;;;3.90;3.60;;;20.40;41.70;;;;;;5069904;28;20443;-81
2022/05/06 04:45:43;;;;;;;3.93;3.63;;;20.30;41.70;;;;;;5070458;28;20447;-81
2022/05/06 04:48:12;;;;;;;3.80;3.50;;;20.40;41.80;;;;;;5067408;28;20490;-80
2022/05/06 04:50:40;;;;;;;3.77;3.40;;;20.30;41.80;;;;;;5070290;28;20478;-81
2022/05/06 04:53:09;;;;;;;3.60;3.30;;;20.30;41.90;;;;;;5070768;28;20457;-82
2022/05/06 04:55:37;;;;;;;3.47;3.20;;;20.30;41.80;;;;;;5071373;28;20451;-80
2022/05/06 04:58:06;;;;;;;3.80;3.50;;;20.30;41.90;;;;;;5071118;28;20447;-80
2022/05/06 05:00:35;;;;;;;3.50;3.20;;;20.30;41.90;;;;;;5071151;28;20497;-81
2022/05/06 05:03:04;;;;;;;3.97;3.57;;;20.30;41.80;;;;;;5067811;28;20463;-80
2022/05/06 05:05:32;;;;;;;3.37;3.17;;;20.30;41.80;;;;;;5069186;28;20462;-80
2022/05/06 05:08:00;;;;;;;3.47;3.17;;;20.30;41.80;;;;;;5050730;28;20451;-81
2022/05/06 05:10:28;;;;;;;3.37;3.17;;;20.30;41.70;;;;;;5051465;28;20472;-80
2022/05/06 05:12:56;;;;;;;4.17;3.63;;;20.30;41.80;;;;;;5048819;28;20440;-82
2022/05/06 05:15:24;;;;;;;3.83;3.53;;;20.30;41.80;;;;;;5050281;28;20474;-82
2022/05/06 05:17:54;;;;;;;3.53;3.33;;;20.30;41.80;;;;;;5050196;28;20443;-82
2022/05/06 05:20:22;;;;;;;4.80;3.77;;;20.40;41.90;;;;;;5058124;28;20497;-80
2022/05/06 05:22:50;;;;;;;3.50;3.30;;;20.40;41.80;;;;;;5070790;28;20449;-81
2022/05/06 05:25:19;;;;;;;3.80;3.50;;;20.40;41.80;;;;;;5071195;28;20446;-82
2022/05/06 05:27:47;;;;;;;3.27;3.07;;;20.40;41.80;;;;;;5069966;28;20501;-81
2022/05/06 05:30:15;;;;;;;4.20;3.80;;;20.30;41.80;;;;;;5070204;28;20505;-80
2022/05/06 05:32:43;;;;;;;3.57;3.37;;;20.30;41.80;;;;;;5068970;28;20443;-81
2022/05/06 05:35:12;;;;;;;3.80;3.50;;;20.30;41.70;;;;;;5070373;28;20479;-81
2022/05/06 05:37:41;;;;;;;4.07;3.77;;;20.30;41.70;;;;;;5065804;28;20534;-81
2022/05/06 05:40:10;;;;;;;3.60;3.40;;;20.40;41.80;;;;;;5070320;28;20490;-81
2022/05/06 05:42:38;;;;;;;3.93;3.60;;;20.30;41.90;;;;;;5069182;28;20493;-82
2022/05/06 05:50:43;;;;;;;4.83;3.77;;;20.40;41.70;;;;;;5068006;28;20474;-82
2022/05/06 05:53:11;;;;;;;4.30;3.40;;;20.40;41.70;;;;;;5067232;28;20479;-80
2022/05/06 05:55:40;;;;;;;3.73;3.43;;;20.40;41.70;;;;;;5068666;28;20480;-81
2022/05/06 05:58:08;;;;;;;3.70;3.40;;;20.40;41.80;;;;;;5049236;28;20546;-81
2022/05/06 06:00:36;;;;;;;3.80;3.50;;;20.40;41.70;;;;;;5049998;28;20462;-81
2022/05/06 06:03:04;;;;;;;3.63;3.33;;;20.50;41.70;;;;;;5049887;28;20460;-81
2022/05/06 06:05:33;;;;;;;4.50;4.10;;;20.50;41.60;;;;;;5049529;28;20536;-81
2022/05/06 06:08:02;;;;;;;3.57;3.37;;;20.50;41.70;;;;;;5049117;28;20447;-81
2022/05/06 06:10:30;;;;;;;3.40;3.20;;;20.50;41.50;;;;;;5054905;28;20478;-80
2022/05/06 06:13:00;;;;;;;3.93;3.50;;;20.50;41.50;;;;;;5069504;28;20469;-82
2022/05/06 06:15:29;;;;;;;3.30;3.10;;;20.60;41.60;;;;;;5069023;28;20447;-81
2022/05/06 06:17:57;;;;;;;3.90;3.57;;;20.60;41.50;;;;;;5068215;28;20442;-81
2022/05/06 06:20:26;;;;;;;4.30;3.73;;;20.70;41.60;;;;;;5067704;28;20469;-81
2022/05/06 06:22:54;;;;;;;3.70;3.40;;;20.70;41.40;;;;;;5077406;28;20449;-81
2022/05/06 06:25:24;;;;;;;4.30;3.33;;;20.80;41.30;;;;;;5068631;28;20451;-80
2022/05/06 06:27:52;;;;;;;4.50;4.10;;;20.80;41.30;;;;;;5065261;28;20454;-80
2022/05/06 06:30:20;;;;;;;4.40;4.00;;;20.90;41.40;;;;;;5068523;28;20478;-81
2022/05/06 06:32:52;;;;;;;4.00;3.70;;;21.00;41.30;;;;;;5069311;28;20442;-81
2022/05/06 06:35:22;;;;;;;4.03;3.67;;;21.00;41.10;;;;;;5068760;28;20451;-81
2022/05/06 06:37:50;;;;;;;3.40;3.20;;;21.10;41.00;;;;;;5068895;28;20945;-81
2022/05/06 06:40:18;;;;;;;4.60;3.50;;;21.20;41.00;;;;;;5069168;28;20466;-82
2022/05/06 06:42:47;;;;;;;5.37;3.43;;;21.30;40.70;;;;;;5066509;28;20479;-80
2022/05/06 06:45:15;;;;;;;3.77;3.47;;;21.40;40.60;;;;;;5069735;28;20510;-81
2022/05/06 06:47:44;;;;;;;3.70;3.50;;;21.40;40.50;;;;;;5069346;28;20473;-81
2022/05/06 06:50:12;;;;;;;4.10;3.83;;;21.50;40.50;;;;;;5068469;28;20477;-82
2022/05/06 06:52:40;;;;;;;3.50;3.30;;;21.50;40.40;;;;;;5069070;28;20478;-82
2022/05/06 06:55:09;;;;;;;4.20;3.80;;;21.60;40.40;;;;;;5068693;28;20454;-81
2022/05/06 06:57:37;;;;;;;3.77;3.53;;;21.70;40.20;;;;;;5068490;28;20484;-82
2022/05/06 07:00:11;;;;;;;4.20;3.57;;;21.80;40.20;;;;;;5064246;28;20467;-81
2022/05/06 07:02:40;;;;;;;3.67;3.33;;;21.90;40.00;;;;;;5069290;28;20457;-81
2022/05/06 07:05:09;;;;;;;4.03;3.67;;;22.00;40.20;;;;;;5068012;28;20441;-82
2022/05/06 07:13:35;;;;;;;3.80;3.50;;;22.20;39.90;;;;;;5069922;28;20441;-81
2022/05/06 07:16:04;;;;;;;3.83;3.53;;;22.40;39.90;;;;;;5063823;28;20451;-80
2022/05/06 07:18:33;;;;;;;4.00;3.70;;;22.40;39.80;;;;;;5065532;28;20445;-81
2022/05/06 07:21:01;;;;;;;4.70;4.33;;;22.60;39.80;;;;;;5067333;28;20443;-80
2022/05/06 07:23:29;;;;;;;3.90;3.60;;;22.70;39.70;;;;;;5067211;28;20442;-83
2022/05/06 07:25:57;;;;;;;3.60;3.40;;;22.80;39.70;;;;;;5065601;28;20473;-82
2022/05/06 07:28:26;;;;;;;4.10;3.80;;;22.80;39.60;;;;;;5065669;28;20463;-81
2022/05/06 07:30:54;;;;;;;3.53;3.23;;;22.90;39.70;;;;;;5065095;28;20474;-81
2022/05/06 07:33:24;;;;;;;4.10;3.80;;;23.00;39.50;;;;;;5063199;28;20454;-82
2022/05/06 07:35:52;;;;;;;3.63;3.33;;;23.20;39.50;;;;;;5059905;28;20486;-80
2022/05/06 07:38:20;;;;;;;3.80;3.50;;;23.30;39.40;;;;;;5067067;28;20442;-81
2022/05/06 07:40:48;;;;;;;3.17;2.97;;;23.40;39.40;;;;;;5064848;28;20484;-81
2022/05/06 07:43:16;;;;;;;3.43;3.23;;;23.50;39.20;;;;;;5065708;28;20477;-80
2022/05/06 07:45:45;;;;;;;4.07;3.73;;;23.60;39.20;;;;;;5065257;28;20442;-80
2022/05/06 07:48:13;;;;;;;3.03;2.90;;;23.70;39.20;;;;;;5064560;28;20425;-82
2022/05/06 07:50:45;;;;;;;3.83;3.63;;;23.90;39.20;;;;;;5061347;28;20475;-81
2022/05/06 07:53:13;;;;;;;4.40;3.03;;;23.90;39.00;;;;;;5066029;28;20449;-81
2022/05/06 07:55:48;;;;;;;3.90;3.30;;;24.10;39.10;;;;;;5069222;28;20409;-81
2022/05/06 07:58:16;;;;;;;4.63;3.70;;;24.20;39.00;;;;;;5071232;28;20457;-80
2022/05/06 08:00:45;;;;;;;3.70;3.40;;;24.30;38.90;;;;;;5069659;28;20478;-82
2022/05/06 08:06:00;;;;;;;3.60;3.23;;;24.60;38.80;;;;;;5069988;28;20446;-82
2022/05/06 08:08:28;;;;;;;3.60;3.30;;;24.70;38.70;;;;;;5067951;28;20460;-81
2022/05/06 08:10:57;;;;;;;3.63;2.80;;;24.80;38.60;;;;;;5072667;28;20445;-81
2022/05/06 08:13:25;;;;;;;3.23;3.00;;;25.00;38.60;;;;;;5071661;28;20446;-81
2022/05/06 08:15:55;;;;;;;3.73;3.50;;;25.10;38.40;;;;;;5071021;28;20459;-81
2022/05/06 08:18:24;;;;;;;3.77;3.47;;;25.20;38.30;;;;;;5069984;28;20496;-82
2022/05/06 08:20:52;;;;;;;3.40;3.20;;;25.40;38.20;;;;;;5070929;28;20417;-81
2022/05/06 08:23:22;;;;;;;3.63;3.00;;;25.50;38.00;;;;;;5068280;28;20431;-80
2022/05/06 08:25:51;;;;;;;3.30;3.10;;;25.70;37.90;;;;;;5071591;28;20442;-82
2022/05/06 08:28:20;;;;;;;3.30;3.10;;;25.80;37.80;;;;;;5072343;28;20425;-81
2022/05/06 08:30:48;;;;;;;3.67;3.37;;;26.00;37.70;;;;;;5070351;28;20445;-79
2022/05/06 08:33:16;;;;;;;3.67;3.40;;;26.10;37.60;;;;;;5069914;28;20423;-81
2022/05/06 08:35:44;;;;;;;3.20;3.00;;;26.30;37.50;;;;;;5069793;28;20821;-80
2022/05/06 08:38:13;;;;;;;3.77;3.57;;;26.40;37.30;;;;;;5069462;28;20417;-82
2022/05/06 08:40:43;;;;;;;2.80;2.70;;;26.50;37.20;;;;;;5068637;28;20452;-80
2022/05/06 08:43:11;;;;;;;3.13;3.00;;;26.60;37.00;;;;;;5069310;28;20446;-80
2022/05/06 08:51:10;;;;;;;3.23;3.03;;;27.00;36.90;;;;;;5069641;28;20498;-79
2022/05/06 08:53:39;;;;;;;2.90;2.73;;;27.20;36.80;;;;;;5069667;28;20418;-80
2022/05/06 08:56:08;;;;;;;2.90;2.80;;;27.40;36.70;;;;;;5069654;28;20457;-81
2022/05/06 08:58:37;;;;;;;3.17;2.97;;;27.50;36.50;;;;;;5065172;28;20433;-80
2022/05/06 09:01:06;;;;;;;3.50;3.20;;;27.70;36.40;;;;;;5069058;28;20437;-81
2022/05/06 09:03:43;;;;;;;2.90;2.70;;;27.80;36.30;;;;;;5067569;28;20428;-80
2022/05/06 09:06:17;;;;;;;2.90;2.70;;;28.00;36.20;;;;;;5068509;28;20955;-80
2022/05/06 09:08:45;;;;;;;2.97;2.77;;;28.10;36.10;;;;;;5067553;28;20436;-79
2022/05/06 09:12:40;;;;;;;6.43;2.80;;;28.30;36.00;;;;;;5072231;28;20449;-81
2022/05/06 09:14:06;;;;;;;3.43;2.97;;;28.50;36.00;;;;;;5071474;28;20443;-80
2022/05/06 09:16:44;;;;;;;3.00;2.80;;;28.60;35.70;;;;;;5067673;28;20446;-80
2022/05/06 09:19:19;;;;;;;2.60;2.50;;;28.80;35.50;;;;;;5070990;28;20450;-82
2022/05/06 09:22:01;;;;;;;3.23;2.87;;;28.90;35.40;;;;;;5071231;28;20414;-80
2022/05/06 09:24:30;;;;;;;2.80;2.60;;;29.10;35.40;;;;;;5069673;28;20453;-80
2022/05/06 09:27:00;;;;;;;3.13;2.93;;;29.30;35.20;;;;;;5069897;28;20393;-80
2022/05/06 09:29:32;;;;;;;2.50;2.40;;;29.40;35.20;;;;;;5070506;28;20437;-79
2022/05/06 09:32:13;;;;;;;3.20;2.83;;;29.60;35.00;;;;;;5064898;28;20508;-79
2022/05/06 09:34:41;;;;;;;3.00;2.90;;;29.80;34.90;;;;;;5068727;28;20446;-80
2022/05/06 09:37:09;;;;;;;2.80;2.60;;;30.00;34.70;;;;;;5071321;28;20443;-80
2022/05/06 09:39:38;;;;;;;2.80;2.70;;;30.20;34.60;;;;;;5072145;28;20445;-81
2022/05/06 09:42:08;;;;;;;2.70;2.50;;;30.30;34.40;;;;;;5070653;28;20442;-81
2022/05/06 09:44:36;;;;;;;2.60;2.40;;;30.50;34.30;;;;;;5070809;28;20443;-82
2022/05/06 09:47:11;;;;;;;2.63;2.53;;;30.70;34.20;;;;;;5070430;28;21018;-82
2022/05/06 09:49:41;;;;;;;2.23;2.13;;;30.90;34.00;;;;;;5066010;28;20890;-81
2022/05/06 09:52:12;;;;;;;2.43;2.33;;;31.10;34.00;;;;;;5068944;28;20454;-82
2022/05/06 09:54:42;;;;;;;3.10;3.00;;;31.30;33.80;;;;;;5069816;28;20450;-80
2022/05/06 09:57:13;;;;;;;2.60;2.50;;;31.50;33.60;;;;;;5067985;28;20424;-81
2022/05/06 09:59:41;;;;;;;10.80;7.10;;;31.70;33.40;;;;;;5061158;28;20532;-81
2022/05/06 10:02:12;;;;;;;9.47;7.50;;;29.40;30.70;;;;;;5063580;28;20438;-84
2022/05/06 10:04:42;;;;;;;8.80;7.20;;;28.60;30.20;;;;;;5063918;28;20459;-80
2022/05/06 10:07:12;;;;;;;14.30;6.47;;;28.70;32.60;;;;;;5051708;28;20426;-80
2022/05/06 10:09:41;;;;;;;17.33;9.30;;;28.50;31.80;;;;;;5059692;28;20445;-80
2022/05/06 10:12:12;;;;;;;10.33;8.27;;;27.70;31.30;;;;;;5044410;28;20453;-80
2022/05/06 10:14:43;;;;;;;10.20;8.30;;;27.10;32.80;;;;;;5043826;28;20480;-80
2022/05/06 10:17:11;;;;;;;22.60;7.80;;;27.50;31.40;;;;;;5044153;28;20436;-80
2022/05/06 10:19:46;;;;;;;8.70;7.77;;;27.10;33.00;;;;;;5049562;28;20462;-80
2022/05/06 10:22:14;;;;;;;13.80;8.40;;;26.40;33.20;;;;;;5061385;28;20482;-80
2022/05/06 10:24:49;;;;;;;14.97;8.57;;;26.50;33.60;;;;;;5060889;28;20474;-80
2022/05/06 10:32:25;;;;;;;21.33;12.90;;;25.50;35.40;;;;;;5048035;28;20454;-80
2022/05/06 10:33:20;;;;;;;9.17;7.77;;;26.80;32.40;;;;;;5050303;28;20838;-79
2022/05/06 10:35:48;;;;;;;7.37;6.30;;;26.70;33.50;;;;;;5055965;28;20476;-79
2022/05/06 10:38:24;;;;;;;12.00;7.90;;;26.90;33.10;;;;;;5064792;28;20446;-78
2022/05/06 10:41:02;;;;;;;9.80;7.97;;;26.60;32.70;;;;;;5058269;28;20421;-80
2022/05/06 10:43:54;;;;;;;9.90;7.43;;;27.30;32.20;;;;;;5055927;28;20448;-79
2022/05/06 10:46:34;;;;;;;10.93;8.13;;;26.50;33.70;;;;;;5058196;28;20481;-80
2022/05/06 10:49:48;;;;;;;7.80;6.37;;;26.70;33.10;;;;;;5055821;28;20490;-79
2022/05/06 10:52:42;;;;;;;10.67;7.20;;;27.10;32.80;;;;;;5056164;28;20470;-78
2022/05/06 10:55:12;;;;;;;7.00;5.20;;;27.40;31.40;;;;;;5054523;28;20495;-79
2022/05/06 10:58:03;;;;;;;10.87;5.10;;;27.50;33.60;;;;;;5046905;28;20451;-79
2022/05/06 11:00:40;;;;;;;6.60;5.97;;;28.10;32.90;;;;;;5039824;28;20476;-80
2022/05/06 11:03:13;;;;;;;5.60;4.80;;;28.70;32.40;;;;;;5040221;28;20458;-80
2022/05/06 11:05:47;;;;;;;7.07;6.37;;;29.20;31.10;;;;;;5043512;28;20466;-80
2022/05/06 11:08:19;;;;;;;5.27;4.53;;;28.50;29.80;;;;;;5057228;28;20447;-80
2022/05/06 11:10:49;;;;;;;5.03;4.40;;;28.80;31.80;;;;;;5047607;28;20468;-80
2022/05/06 11:13:33;;;;;;;5.77;5.27;;;28.80;31.60;;;;;;5040028;28;20566;-80
2022/05/06 11:16:09;;;;;;;4.77;4.37;;;28.60;29.80;;;;;;5037786;28;20422;-80
2022/05/06 11:18:47;;;;;;;7.40;6.60;;;29.10;30.00;;;;;;5039397;28;20534;-80
2022/05/06 11:21:22;;;;;;;8.70;5.70;;;29.00;29.20;;;;;;5059087;28;20444;-80
2022/05/06 11:23:51;;;;;;;5.77;5.10;;;29.10;29.50;;;;;;5058681;28;20501;-80
2022/05/06 11:26:24;;;;;;;8.53;5.50;;;29.20;29.70;;;;;;5038538;28;20543;-80
2022/05/06 11:29:02;;;;;;;4.00;3.77;;;29.70;29.40;;;;;;5037696;28;20486;-81
2022/05/06 11:31:32;;;;;;;5.30;4.83;;;30.60;29.30;;;;;;5040091;28;20451;-80
2022/05/06 11:34:04;;;;;;;4.40;4.00;;;30.60;29.30;;;;;;5043119;28;20524;-80
2022/05/06 11:36:33;;;;;;;5.00;4.40;;;31.40;29.20;;;;;;5048473;28;20451;-81
2022/05/06 11:39:10;;;;;;;7.57;6.70;;;32.70;27.10;;;;;;5056994;28;20466;-81
2022/05/06 11:41:38;;;;;;;5.10;3.90;;;31.80;25.40;;;;;;5048244;28;20449;-81
2022/05/06 11:47:26;;;;;;;5.00;4.60;;;33.60;26.80;;;;;;5062016;28;20438;-80
2022/05/06 11:49:53;;;;;;;5.30;4.53;;;33.30;25.20;;;;;;5062215;28;20494;-80
2022/05/06 11:52:26;;;;;;;12.13;3.97;;;32.00;25.10;;;;;;5061798;28;20477;-80
2022/05/06 11:55:08;;;;;;;6.73;4.87;;;33.40;26.90;;;;;;5062370;28;20443;-80
2022/05/06 11:57:36;;;;;;;5.03;4.63;;;35.40;24.40;;;;;;5062442;28;20466;-80
2022/05/06 12:00:05;;;;;;;6.33;5.30;;;34.10;24.90;;;;;;5062202;28;20526;-80
2022/05/06 12:02:38;;;;;;;5.63;5.13;;;34.10;25.20;;;;;;5062969;28;20466;-81
2022/05/06 12:05:26;;;;;;;3.93;3.63;;;35.60;24.00;;;;;;5063581;28;20445;-80
2022/05/06 12:08:01;;;;;;;5.67;4.00;;;36.30;24.40;;;;;;5061748;28;20441;-81
2022/05/06 12:10:31;;;;;;;3.90;3.70;;;37.80;23.20;;;;;;5061311;28;20527;-81
2022/05/06 12:13:00;;;;;;;3.30;3.00;;;37.10;21.50;;;;;;5060925;28;20466;-80
2022/05/06 12:15:32;;;;;;;5.53;5.10;;;34.70;23.30;;;;;;5060516;28;20472;-80
2022/05/06 12:18:06;;;;;;;5.40;3.70;;;32.50;24.60;;;;;;5062270;28;20450;-80
2022/05/06 12:20:36;;;;;;;4.17;3.80;;;33.90;26.50;;;;;;5061944;28;20477;-81
2022/05/06 12:23:05;;;;;;;4.40;3.43;;;34.90;23.10;;;;;;5062667;28;20538;-80
2022/05/06 12:25:36;;;;;;;5.27;3.27;;;35.10;24.70;;;;;;5061637;28;20450;-81
2022/05/06 12:28:06;;;;;;;2.53;2.43;;;36.40;23.30;;;;;;5062945;28;20484;-81
2022/05/06 12:30:37;;;;;;;2.80;2.70;;;37.50;22.20;;;;;;5063564;28;20523;-81
2022/05/06 12:33:08;;;;;;;2.50;2.30;;;38.60;21.40;;;;;;5063314;28;20549;-81
2022/05/06 12:35:55;;;;;;;5.30;4.07;;;37.90;21.90;;;;;;5064729;28;20518;-81
2022/05/06 12:38:26;;;;;;;2.93;2.73;;;38.70;20.10;;;;;;5062925;28;20450;-81
2022/05/06 12:40:54;;;;;;;2.70;2.60;;;39.10;20.80;;;;;;5062337;28;20441;-81
2022/05/06 12:43:27;;;;;;;3.70;3.50;;;39.60;20.60;;;;;;5060568;28;20962;-81
2022/05/06 12:46:00;;;;;;;3.83;3.50;;;38.20;21.00;;;;;;5061845;28;20446;-81
2022/05/06 12:51:32;;;;;;;3.57;3.37;;;39.10;22.00;;;;;;5046932;28;20503;-81
2022/05/06 12:54:03;;;;;;;3.20;3.00;;;35.70;22.30;;;;;;5052553;28;20467;-81
2022/05/06 12:56:31;;;;;;;4.47;3.73;;;35.40;24.20;;;;;;5043530;28;20444;-80
2022/05/06 12:58:59;;;;;;;3.33;2.97;;;34.90;22.70;;;;;;5037425;28;20471;-79
2022/05/06 13:01:27;;;;;;;4.30;3.30;;;33.30;24.30;;;;;;5038585;28;20451;-80
2022/05/06 13:03:57;;;;;;;8.00;3.67;;;34.10;24.90;;;;;;5057022;28;20451;-82
2022/05/06 13:06:30;;;;;;;3.57;3.37;;;35.70;23.60;;;;;;5056904;28;20470;-80
2022/05/06 13:09:01;;;;;;;5.80;2.73;;;36.60;22.90;;;;;;5055691;28;20537;-80
2022/05/06 13:11:31;;;;;;;2.60;2.50;;;37.20;22.60;;;;;;5058777;28;20812;-80
2022/05/06 13:14:00;;;;;;;3.40;3.20;;;37.50;22.30;;;;;;5040782;28;20558;-79
2022/05/06 13:16:28;;;;;;;5.10;4.70;;;37.00;23.10;;;;;;5056538;28;20472;-79
2022/05/06 13:19:00;;;;;;;5.20;4.80;;;37.00;22.70;;;;;;5060916;28;20473;-81
2022/05/06 13:21:30;;;;;;;5.13;4.00;;;34.80;23.60;;;;;;5058900;28;20446;-79
2022/05/06 13:23:59;;;;;;;4.20;3.80;;;34.20;24.20;;;;;;5059334;28;21002;-79
2022/05/06 13:26:27;;;;;;;3.87;3.50;;;33.80;25.00;;;;;;5043149;28;20447;-80
2022/05/06 13:28:55;;;;;;;5.90;3.90;;;33.50;25.70;;;;;;5057462;28;20470;-79
2022/05/06 13:31:24;;;;;;;4.33;4.03;;;33.00;25.80;;;;;;5059807;28;20453;-80
2022/05/06 13:33:53;;;;;;;4.30;4.00;;;32.30;26.00;;;;;;5060778;28;20462;-79
2022/05/06 13:36:25;;;;;;;3.70;3.50;;;30.90;27.80;;;;;;5045371;28;20447;-78
2022/05/06 13:38:53;;;;;;;4.33;4.03;;;30.80;28.00;;;;;;5041162;28;20495;-79
2022/05/06 13:41:23;;;;;;;5.53;4.10;;;30.70;28.30;;;;;;5042589;28;20466;-79
2022/05/06 13:43:51;;;;;;;5.17;4.00;;;30.50;28.50;;;;;;5041496;28;20489;-79